Time;durP1;ratioP1;P1;durP2;ratioP2;P2;SDS_P1;SDS_P2;PMS_P1;PMS_P2;Temp;Humidity;BMP_temperature;BMP_pressure;BME280_temperature;BME280_humidity;BME280_pressure;Samples;Min_cycle;Max_cycle;Signal;HPM_P1;HPM_P2
2021/04/01 00:01:26;;;;;;;21.90;12.63;;;;;12.50;101496.00;;;;9652852;30;20691;-75
2021/04/01 00:06:27;;;;;;;20.97;12.53;;;;;12.40;101497.00;;;;9652769;30;20215;-75
2021/04/01 00:11:29;;;;;;;22.13;13.47;;;;;12.40;101485.00;;;;9654296;30;20666;-75
2021/04/01 00:16:32;;;;;;;21.73;13.37;;;;;12.30;101476.00;;;;9652297;30;20310;-77
2021/04/01 00:21:34;;;;;;;23.60;14.20;;;;;12.20;101481.00;;;;9667198;30;20197;-75
2021/04/01 00:26:35;;;;;;;22.83;13.57;;;;;12.10;101476.00;;;;9675399;30;20224;-75
2021/04/01 00:31:36;;;;;;;19.53;13.33;;;;;12.00;101475.00;;;;9687301;30;20207;-75
2021/04/01 00:36:38;;;;;;;25.37;13.40;;;;;11.90;101477.00;;;;9677487;30;20302;-75
2021/04/01 00:41:41;;;;;;;21.17;13.30;;;;;11.80;101476.00;;;;9709124;30;20270;-75
2021/04/01 00:46:46;;;;;;;21.93;12.47;;;;;11.80;101470.00;;;;9694311;30;20216;-75
2021/04/01 00:51:47;;;;;;;20.03;12.77;;;;;11.70;101470.00;;;;9679304;30;20216;-76
2021/04/01 00:56:48;;;;;;;21.70;14.07;;;;;11.80;101468.00;;;;9672847;30;20272;-76
2021/04/01 01:01:56;;;;;;;24.57;14.10;;;;;11.70;101467.00;;;;9658334;30;20231;-76
2021/04/01 01:06:59;;;;;;;22.33;12.73;;;;;11.70;101463.00;;;;9693145;30;20250;-76
2021/04/01 01:12:02;;;;;;;16.97;13.13;;;;;11.60;101456.00;;;;9694446;30;20192;-76
2021/04/01 01:17:03;;;;;;;22.07;13.57;;;;;11.60;101465.00;;;;9658008;30;20227;-76
2021/04/01 01:22:06;;;;;;;20.73;13.23;;;;;11.50;101463.00;;;;9643542;30;20217;-76
2021/04/01 01:27:07;;;;;;;20.03;13.70;;;;;11.50;101460.00;;;;9671264;30;20259;-76
2021/04/01 01:32:09;;;;;;;22.10;12.40;;;;;11.40;101454.00;;;;9694475;30;20277;-76
2021/04/01 01:37:10;;;;;;;22.63;14.03;;;;;11.40;101456.00;;;;9693438;30;20639;-76
2021/04/01 01:42:12;;;;;;;23.43;12.50;;;;;11.30;101451.00;;;;9656830;30;20270;-76
2021/04/01 01:47:13;;;;;;;21.47;12.50;;;;;11.30;101440.00;;;;9706492;30;20208;-76
2021/04/01 01:52:14;;;;;;;19.50;12.80;;;;;11.40;101450.00;;;;9706736;30;20235;-76
2021/04/01 01:57:15;;;;;;;22.50;13.07;;;;;11.40;101446.00;;;;9663543;30;20281;-76
2021/04/01 02:02:17;;;;;;;36.90;15.17;;;;;11.40;101443.00;;;;9677689;30;20207;-76
2021/04/01 02:07:18;;;;;;;19.90;13.70;;;;;11.40;101442.00;;;;9692847;30;20203;-76
2021/04/01 02:12:20;;;;;;;22.60;14.27;;;;;11.40;101441.00;;;;9663263;30;20273;-76
2021/04/01 02:17:23;;;;;;;20.53;13.70;;;;;11.40;101445.00;;;;9677512;30;20224;-76
2021/04/01 02:22:25;;;;;;;20.73;14.37;;;;;11.30;101440.00;;;;9691469;30;20212;-76
2021/04/01 02:27:26;;;;;;;20.47;13.50;;;;;11.30;101455.00;;;;9677262;30;20286;-76
2021/04/01 02:32:28;;;;;;;21.67;13.50;;;;;11.20;101459.00;;;;9662599;30;20263;-76
2021/04/01 02:37:29;;;;;;;20.67;14.13;;;;;11.10;101457.00;;;;9676641;30;20708;-76
2021/04/01 02:42:31;;;;;;;21.23;13.33;;;;;11.00;101447.00;;;;9702453;30;20677;-76
2021/04/01 02:47:32;;;;;;;20.60;13.20;;;;;11.00;101444.00;;;;9675389;30;20240;-76
2021/04/01 02:52:34;;;;;;;21.43;13.27;;;;;10.90;101441.00;;;;9705073;30;20207;-76
2021/04/01 02:57:35;;;;;;;25.57;13.27;;;;;10.90;101440.00;;;;9689421;30;20685;-76
2021/04/01 03:02:39;;;;;;;21.87;13.33;;;;;10.90;101450.00;;;;9690009;30;20258;-76
2021/04/01 03:07:41;;;;;;;20.27;13.43;;;;;10.80;101449.00;;;;9673924;30;20294;-76
2021/04/01 03:12:42;;;;;;;24.23;13.43;;;;;10.80;101448.00;;;;9704709;30;20329;-76
2021/04/01 03:17:44;;;;;;;23.30;14.13;;;;;10.70;101448.00;;;;9704027;30;20260;-76
2021/04/01 03:22:46;;;;;;;25.60;12.67;;;;;10.70;101453.00;;;;9683928;30;20290;-76
2021/04/01 03:27:48;;;;;;;22.00;13.67;;;;;10.60;101458.00;;;;9689573;30;20219;-76
2021/04/01 03:32:49;;;;;;;19.97;13.27;;;;;10.60;101459.00;;;;9675294;30;20212;-76
2021/04/01 03:37:56;;;;;;;19.93;13.27;;;;;10.60;101460.00;;;;9660405;30;20215;-76
2021/04/01 03:42:58;;;;;;;20.97;13.80;;;;;10.60;101457.00;;;;9689878;30;20211;-76
2021/04/01 03:47:59;;;;;;;21.57;12.93;;;;;10.60;101464.00;;;;9688443;30;20211;-76
2021/04/01 03:53:02;;;;;;;21.60;12.27;;;;;10.70;101468.00;;;;9702649;30;20207;-76
2021/04/01 04:19:03;;;;;;;21.70;14.60;;;;;10.60;101478.00;;;;9660341;30;20227;-76
2021/04/01 04:24:06;;;;;;;24.23;13.23;;;;;10.60;101484.00;;;;9645454;30;20205;-76
2021/04/01 04:29:08;;;;;;;22.90;14.70;;;;;10.50;101473.00;;;;9674324;30;20228;-76
2021/04/01 04:34:09;;;;;;;23.33;14.43;;;;;10.40;101485.00;;;;9696966;30;20200;-76
2021/04/01 04:39:10;;;;;;;23.43;15.20;;;;;10.40;101481.00;;;;9695064;30;20219;-76
2021/04/01 04:44:11;;;;;;;24.07;14.37;;;;;10.30;101469.00;;;;9695150;30;20219;-76
2021/04/01 04:49:13;;;;;;;25.17;13.10;;;;;10.30;101476.00;;;;9695031;30;20539;-76
2021/04/01 04:54:14;;;;;;;23.97;14.23;;;;;10.20;101478.00;;;;9693766;30;20262;-76
2021/04/01 04:59:34;;;;;;;25.40;13.87;;;;;10.20;101473.00;;;;9708756;30;20579;-76
2021/04/01 05:10:09;;;;;;;24.17;14.00;;;;;10.00;101483.00;;;;9684052;30;20248;-76
2021/04/01 05:15:11;;;;;;;22.10;13.63;;;;;10.00;101484.00;;;;9679173;30;20204;-76
2021/04/01 05:20:13;;;;;;;22.40;13.10;;;;;9.90;101493.00;;;;9720700;30;20704;-76
2021/04/01 05:25:16;;;;;;;27.30;12.97;;;;;9.90;101494.00;;;;9721900;30;20748;-76
2021/04/01 05:30:19;;;;;;;20.97;12.90;;;;;9.80;101497.00;;;;9693279;30;20250;-76
2021/04/01 05:35:21;;;;;;;24.87;13.67;;;;;9.80;101512.00;;;;9693459;30;20214;-76
2021/04/01 05:40:23;;;;;;;24.90;14.60;;;;;9.90;101504.00;;;;9722068;30;20285;-76
2021/04/01 05:45:37;;;;;;;26.50;14.67;;;;;10.00;101511.00;;;;9706989;30;20211;-76
2021/04/01 05:51:12;;;;;;;27.97;15.00;;;;;10.10;101522.00;;;;9664132;30;20199;-76
2021/04/01 06:06:54;;;;;;;29.13;13.93;;;;;10.70;101537.00;;;;9677602;30;20266;-76
2021/04/01 06:11:57;;;;;;;28.57;16.13;;;;;10.90;101555.00;;;;9691850;30;20226;-76
2021/04/01 06:17:04;;;;;;;30.03;15.47;;;;;11.10;101552.00;;;;9706469;30;20251;-76
2021/04/01 06:22:08;;;;;;;26.67;14.30;;;;;11.30;101561.00;;;;9677090;30;20284;-77
2021/04/01 06:27:29;;;;;;;28.17;14.10;;;;;11.50;101583.00;;;;9705952;30;20255;-77
2021/04/01 06:32:31;;;;;;;23.33;13.70;;;;;11.70;101588.00;;;;9685835;30;20237;-76
2021/04/01 06:37:51;;;;;;;20.70;13.77;;;;;11.90;101587.00;;;;9655572;30;20693;-77
2021/04/01 06:42:58;;;;;;;22.27;13.10;;;;;12.30;101591.00;;;;9665269;30;20573;-77
2021/04/01 06:48:00;;;;;;;27.57;13.23;;;;;12.60;101592.00;;;;9691025;30;20204;-77
2021/04/01 06:53:17;;;;;;;28.23;14.97;;;;;13.00;101584.00;;;;9703429;30;20231;-77
2021/04/01 06:59:05;;;;;;;32.03;15.20;;;;;13.50;101584.00;;;;9676075;30;20643;-76
2021/04/01 07:04:18;;;;;;;29.77;16.77;;;;;14.00;101587.00;;;;9690614;30;20218;-77
2021/04/01 07:09:50;;;;;;;28.43;17.03;;;;;14.50;101590.00;;;;9675912;30;20286;-76
2021/04/01 07:15:02;;;;;;;32.90;16.70;;;;;14.90;101581.00;;;;9686026;30;20200;-76
2021/04/01 07:46:45;;;;;;;31.87;18.80;;;;;17.30;101578.00;;;;9680729;30;20207;-76
2021/04/01 07:52:01;;;;;;;38.53;20.90;;;;;17.70;101581.00;;;;9674435;30;20246;-76
2021/04/01 07:57:14;;;;;;;42.60;26.77;;;;;18.10;101579.00;;;;9688403;30;20223;-76
2021/04/01 08:02:32;;;;;;;44.57;27.33;;;;;18.50;101582.00;;;;9689296;30;20227;-76
2021/04/01 08:07:39;;;;;;;46.67;27.50;;;;;18.70;101585.00;;;;9700205;30;20208;-77
2021/04/01 08:12:48;;;;;;;48.92;27.52;;;;;19.20;101585.00;;;;9687036;30;20199;-76
2021/04/01 08:18:08;;;;;;;53.00;29.40;;;;;19.70;101588.00;;;;9637871;30;20240;-76
2021/04/01 08:23:18;;;;;;;49.22;29.15;;;;;20.00;101593.00;;;;9649650;30;20278;-77
2021/04/01 08:39:48;;;;;;;39.55;25.75;;;;;20.90;101600.00;;;;9676539;30;20224;-76
2021/04/01 08:45:35;;;;;;;42.10;26.52;;;;;21.00;101615.00;;;;9686309;30;20263;-77
2021/04/01 08:51:08;;;;;;;46.20;26.90;;;;;21.50;101626.00;;;;9677701;30;20258;-76
2021/04/01 08:56:29;;;;;;;41.83;25.35;;;;;21.90;101625.00;;;;9678020;30;20214;-76
2021/04/01 09:01:35;;;;;;;41.25;25.90;;;;;22.20;101633.00;;;;9679723;30;20227;-76
2021/04/01 09:06:42;;;;;;;46.80;27.02;;;;;22.30;101630.00;;;;9672374;30;20216;-76
2021/04/01 09:17:07;;;;;;;41.88;26.60;;;;;23.30;101636.00;;;;9703974;30;20212;-76
2021/04/01 09:22:22;;;;;;;47.53;28.05;;;;;23.60;101633.00;;;;9673945;30;20212;-77
2021/04/01 09:27:24;;;;;;;44.72;27.98;;;;;24.00;101638.00;;;;9697848;30;20273;-77
2021/04/01 09:32:27;;;;;;;55.63;30.52;;;;;24.10;101634.00;;;;9696968;30;20197;-76
2021/04/01 09:37:29;;;;;;;51.42;30.40;;;;;24.40;101632.00;;;;9683360;30;20308;-76
2021/04/01 09:42:38;;;;;;;52.05;30.35;;;;;24.80;101618.00;;;;9697102;30;20601;-77
2021/04/01 09:47:50;;;;;;;50.05;31.40;;;;;24.90;101630.00;;;;9688036;30;20205;-77
2021/04/01 09:53:12;;;;;;;53.70;30.35;;;;;25.00;101628.00;;;;9682609;30;20219;-77
2021/04/01 09:58:28;;;;;;;43.55;26.10;;;;;25.10;101630.00;;;;9685577;30;20270;-76
2021/04/01 10:03:40;;;;;;;46.42;29.98;;;;;25.30;101642.00;;;;9691183;30;20206;-77
2021/04/01 10:08:41;;;;;;;48.67;29.02;;;;;25.40;101633.00;;;;9693036;30;20605;-76
2021/04/01 10:13:42;;;;;;;43.97;27.13;;;;;25.50;101632.00;;;;9704285;30;20208;-76
2021/04/01 10:18:44;;;;;;;46.83;27.88;;;;;25.70;101636.00;;;;9704592;30;20216;-77
2021/04/01 10:23:54;;;;;;;44.42;26.73;;;;;26.00;101629.00;;;;9670092;30;20207;-76
2021/04/01 10:34:33;;;;;;;36.08;23.60;;;;;26.70;101632.00;;;;9686960;30;20756;-77
2021/04/01 10:39:40;;;;;;;41.40;25.52;;;;;27.00;101627.00;;;;9673215;30;20222;-76
2021/04/01 10:44:41;;;;;;;37.70;22.48;;;;;27.20;101627.00;;;;9696228;30;20208;-77
2021/04/01 10:49:44;;;;;;;36.63;21.13;;;;;26.70;101623.00;;;;9684076;30;20212;-77
2021/04/01 10:54:46;;;;;;;34.60;21.05;;;;;26.40;101626.00;;;;9643900;30;20216;-75
2021/04/01 10:59:47;;;;;;;35.75;19.75;;;;;26.20;101631.00;;;;9695104;30;20224;-76
2021/04/01 11:05:09;;;;;;;24.45;13.77;;;;;26.00;101628.00;;;;9677108;30;20807;-76
2021/04/01 11:10:21;;;;;;;21.48;12.10;;;;;26.20;101625.00;;;;9680829;30;20207;-76
2021/04/01 11:15:26;;;;;;;21.75;12.27;;;;;26.30;101632.00;;;;9669163;30;20211;-76
2021/04/01 11:20:39;;;;;;;25.25;13.23;;;;;26.70;101638.00;;;;9700195;30;20214;-75
2021/04/01 11:25:49;;;;;;;26.50;14.73;;;;;27.10;101625.00;;;;9713587;30;20223;-75
2021/04/01 11:30:53;;;;;;;27.40;15.27;;;;;26.60;101633.00;;;;9679516;30;20200;-76
2021/04/01 11:36:04;;;;;;;26.20;14.73;;;;;26.30;101635.00;;;;9678373;30;20203;-75
2021/04/01 11:41:07;;;;;;;35.30;17.92;;;;;26.80;101629.00;;;;9688160;30;20212;-77
2021/04/01 11:46:14;;;;;;;41.58;21.50;;;;;26.60;101641.00;;;;9685914;30;20653;-76
2021/04/01 11:51:23;;;;;;;42.15;23.38;;;;;26.30;101632.00;;;;9679100;30;20257;-76
2021/04/01 11:56:34;;;;;;;43.22;25.63;;;;;26.10;101633.00;;;;9657092;30;20263;-76
2021/04/01 12:01:47;;;;;;;43.67;25.40;;;;;25.90;101636.00;;;;9672964;30;20222;-76
2021/04/01 12:06:49;;;;;;;44.47;27.25;;;;;26.10;101624.00;;;;9698109;30;20274;-77
2021/04/01 12:11:50;;;;;;;50.83;30.40;;;;;25.80;101630.00;;;;9685871;30;20760;-76
2021/04/01 12:16:59;;;;;;;48.08;31.40;;;;;26.20;101630.00;;;;9696431;30;20724;-77
2021/04/01 12:22:10;;;;;;;51.53;29.08;;;;;26.70;101640.00;;;;9701538;30;20214;-75
2021/04/01 12:27:11;;;;;;;52.08;33.67;;;;;26.50;101644.00;;;;9661492;30;20262;-77
2021/04/01 12:32:24;;;;;;;54.90;35.13;;;;;26.80;101644.00;;;;9702388;30;20222;-77
2021/04/01 12:37:25;;;;;;;46.92;32.90;;;;;26.80;101641.00;;;;9672779;30;20623;-77
2021/04/01 12:42:33;;;;;;;49.58;32.45;;;;;27.10;101640.00;;;;9692107;30;20210;-77
2021/04/01 12:47:35;;;;;;;51.25;33.17;;;;;27.00;101641.00;;;;9710868;30;20200;-77
2021/04/01 12:52:52;;;;;;;51.50;34.83;;;;;27.10;101639.00;;;;9687919;30;20200;-77
2021/04/01 12:57:58;;;;;;;55.20;34.88;;;;;27.50;101643.00;;;;9675454;30;20315;-77
2021/04/01 13:02:59;;;;;;;54.28;36.50;;;;;27.50;101636.00;;;;9709111;30;20218;-77
2021/04/01 13:13:20;;;;;;;56.75;39.05;;;;;27.20;101649.00;;;;9701514;30;20208;-77
2021/04/01 13:18:22;;;;;;;56.13;40.47;;;;;27.10;101637.00;;;;9684200;30;20213;-76
2021/04/01 13:28:29;;;;;;;53.20;38.22;;;;;26.70;101658.00;;;;9683523;30;20307;-77
2021/04/01 13:33:59;;;;;;;55.33;41.15;;;;;26.50;101663.00;;;;9691087;30;20204;-77
2021/04/01 13:38:54;;;;;;;50.85;33.38;;;;;26.70;101656.00;;;;9671603;30;20767;-77
2021/04/01 13:43:57;;;;;;;44.38;30.20;;;;;26.20;101669.00;;;;9670586;30;20263;-77
2021/04/01 13:49:02;;;;;;;51.17;31.95;;;;;26.60;101664.00;;;;9678854;30;20204;-77
2021/04/01 14:09:32;;;;;;;32.10;19.95;;;;;28.30;101661.00;;;;9699389;30;20668;-77
2021/04/01 14:14:35;;;;;;;32.97;20.85;;;;;28.80;101668.00;;;;9704108;30;20808;-77
2021/04/01 14:19:39;;;;;;;30.85;19.63;;;;;29.20;101670.00;;;;9691411;30;20220;-77
2021/04/01 14:24:47;;;;;;;30.23;18.85;;;;;29.30;101674.00;;;;9700265;30;20222;-78
2021/04/01 14:29:56;;;;;;;27.63;17.25;;;;;29.10;101677.00;;;;9670940;30;20207;-77
2021/04/01 14:34:59;;;;;;;27.48;18.48;;;;;29.30;101676.00;;;;9682140;30;20209;-76
2021/04/01 14:40:07;;;;;;;35.50;19.25;;;;;29.60;101669.00;;;;9696392;30;20283;-78
2021/04/01 14:45:09;;;;;;;34.80;20.65;;;;;29.60;101677.00;;;;9675579;30;20677;-77
2021/04/01 14:50:11;;;;;;;32.92;18.85;;;;;27.90;101671.00;;;;9702862;30;20207;-76
2021/04/01 14:55:16;;;;;;;31.55;19.95;;;;;29.40;101674.00;;;;9665678;30;20271;-78
2021/04/01 15:00:20;;;;;;;27.75;17.65;;;;;29.40;101671.00;;;;9709236;30;20226;-78
2021/04/01 15:05:22;;;;;;;21.52;15.02;;;;;29.50;101663.00;;;;9690676;30;20216;-77
2021/04/01 15:10:23;;;;;;;21.20;13.20;;;;;29.40;101664.00;;;;9681388;30;20775;-77
2021/04/01 15:15:32;;;;;;;23.02;11.60;;;;;29.50;101668.00;;;;9694740;30;20207;-77
2021/04/01 15:20:33;;;;;;;19.45;9.32;;;;;29.10;101683.00;;;;9665447;30;20223;-77
2021/04/01 15:25:34;;;;;;;14.90;8.77;;;;;26.90;101686.00;;;;9693792;30;20223;-77
2021/04/01 15:30:36;;;;;;;15.07;7.72;;;;;26.10;101690.00;;;;9668011;30;20512;-77
2021/04/01 15:35:39;;;;;;;18.20;7.63;;;;;24.80;101698.00;;;;9692403;30;20755;-76
2021/04/01 15:40:42;;;;;;;15.45;6.72;;;;;23.70;101700.00;;;;9694117;30;20298;-77
2021/04/01 15:45:48;;;;;;;19.73;7.30;;;;;23.40;101700.00;;;;9659697;30;20222;-77
2021/04/01 15:50:49;;;;;;;14.63;6.03;;;;;22.90;101709.00;;;;9649699;30;20195;-77
2021/04/01 15:55:50;;;;;;;15.98;6.57;;;;;22.00;101717.00;;;;9656492;30;20262;-76
2021/04/01 16:00:52;;;;;;;15.27;6.15;;;;;21.10;101710.00;;;;9689432;30;20227;-75
2021/04/01 16:05:53;;;;;;;16.55;6.07;;;;;20.50;101723.00;;;;9685339;30;20227;-76
2021/04/01 16:10:56;;;;;;;16.65;6.10;;;;;20.00;101728.00;;;;9678681;30;20208;-77
2021/04/01 16:15:58;;;;;;;15.10;5.50;;;;;19.60;101723.00;;;;9687262;30;20645;-76
2021/04/01 16:20:59;;;;;;;11.70;4.63;;;;;19.30;101736.00;;;;9681010;30;20212;-76
2021/04/01 16:26:02;;;;;;;10.27;4.95;;;;;19.10;101737.00;;;;9664129;30;20227;-76
2021/04/01 16:31:05;;;;;;;17.40;5.13;;;;;18.70;101733.00;;;;9691535;30;20673;-76
2021/04/01 16:36:07;;;;;;;12.98;5.10;;;;;18.50;101754.00;;;;9690739;30;20269;-77
2021/04/01 16:41:08;;;;;;;10.70;4.30;;;;;18.30;101760.00;;;;9676405;30;20230;-77
2021/04/01 16:46:10;;;;;;;14.03;5.13;;;;;17.80;101768.00;;;;9699092;30;20215;-76
2021/04/01 16:51:12;;;;;;;14.53;5.40;;;;;17.50;101770.00;;;;9678241;30;20219;-77
2021/04/01 16:56:15;;;;;;;14.60;4.90;;;;;17.30;101764.00;;;;9686902;30;20239;-76
2021/04/01 17:01:16;;;;;;;12.80;5.37;;;;;17.10;101755.00;;;;9686423;30;20228;-76
2021/04/01 17:06:18;;;;;;;13.00;5.10;;;;;16.80;101768.00;;;;9700391;30;20259;-77
2021/04/01 17:11:21;;;;;;;18.17;4.90;;;;;16.70;101765.00;;;;9687582;30;20268;-77
2021/04/01 17:16:22;;;;;;;11.10;4.37;;;;;16.50;101773.00;;;;9699454;30;20263;-75
2021/04/01 17:21:24;;;;;;;12.97;5.07;;;;;16.30;101771.00;;;;9676282;30;20243;-77
2021/04/01 17:26:26;;;;;;;10.70;4.00;;;;;15.90;101772.00;;;;9693198;30;20224;-78
2021/04/01 17:31:27;;;;;;;11.47;4.30;;;;;15.60;101784.00;;;;9680018;30;20243;-77
2021/04/01 17:36:29;;;;;;;14.27;4.47;;;;;15.30;101792.00;;;;9673996;30;20749;-77
2021/04/01 17:41:30;;;;;;;15.87;4.40;;;;;15.00;101788.00;;;;9645261;30;20228;-78
2021/04/01 17:46:31;;;;;;;16.03;4.73;;;;;14.70;101792.00;;;;9666319;30;20203;-77
2021/04/01 17:51:33;;;;;;;10.80;4.40;;;;;14.40;101797.00;;;;9695706;30;20226;-77
2021/04/01 17:56:35;;;;;;;19.57;4.50;;;;;14.20;101801.00;;;;9694060;30;20207;-77
2021/04/01 18:01:39;;;;;;;12.87;4.07;;;;;13.90;101811.00;;;;9711612;30;20314;-77
2021/04/01 18:22:45;;;;;;;13.20;4.07;;;;;12.90;101829.00;;;;9710992;30;20199;-76
2021/04/01 18:38:13;;;;;;;18.37;4.10;;;;;12.20;101843.00;;;;9695592;30;20220;-77
2021/04/01 18:43:16;;;;;;;18.07;4.40;;;;;12.00;101847.00;;;;9696154;30;20215;-77
2021/04/01 18:48:29;;;;;;;19.47;4.80;;;;;11.90;101853.00;;;;9681300;30;20226;-78
2021/04/01 18:53:46;;;;;;;15.00;4.20;;;;;11.70;101854.00;;;;9680495;30;20211;-77
2021/04/01 18:59:01;;;;;;;14.97;3.97;;;;;11.50;101864.00;;;;9693594;30;20231;-77
2021/04/01 19:04:04;;;;;;;22.20;5.13;;;;;11.30;101874.00;;;;9694768;30;20218;-77
2021/04/01 19:09:09;;;;;;;20.13;5.30;;;;;11.20;101879.00;;;;9694175;30;20680;-77
2021/04/01 19:24:53;;;;;;;17.33;5.00;;;;;10.70;101904.00;;;;9681654;30;20227;-77
2021/04/01 19:29:54;;;;;;;21.93;5.07;;;;;10.60;101905.00;;;;9694105;30;20747;-77
2021/04/01 19:34:57;;;;;;;22.17;5.83;;;;;10.50;101917.00;;;;9679081;30;20258;-77
2021/04/01 19:39:59;;;;;;;15.93;5.03;;;;;10.40;101927.00;;;;9692837;30;20223;-76
2021/04/01 19:45:06;;;;;;;16.40;5.37;;;;;10.30;101923.00;;;;9707109;30;20211;-77
2021/04/01 19:50:09;;;;;;;17.83;4.87;;;;;10.10;101935.00;;;;9693135;30;20270;-77
2021/04/01 19:55:22;;;;;;;24.57;4.90;;;;;10.00;101935.00;;;;9678681;30;20204;-77
2021/04/01 20:00:34;;;;;;;16.20;5.27;;;;;9.90;101953.00;;;;9677784;30;20224;-77
2021/04/01 20:05:36;;;;;;;21.63;4.90;;;;;9.80;101949.00;;;;9692126;30;20621;-77
2021/04/01 20:10:38;;;;;;;20.93;5.47;;;;;9.70;101953.00;;;;9677839;30;20204;-77
2021/04/01 20:15:45;;;;;;;19.20;4.97;;;;;9.60;101964.00;;;;9635879;30;20219;-77
2021/04/01 20:20:47;;;;;;;25.87;5.30;;;;;9.50;101967.00;;;;9671603;30;20305;-76
2021/04/01 20:25:49;;;;;;;17.80;5.30;;;;;9.30;101974.00;;;;9655280;30;20228;-77
2021/04/01 20:30:53;;;;;;;21.50;5.87;;;;;9.20;101982.00;;;;9683046;30;20204;-77
2021/04/01 20:35:55;;;;;;;16.20;5.03;;;;;9.10;101979.00;;;;9675071;30;20302;-77
2021/04/01 20:40:56;;;;;;;17.57;5.93;;;;;9.00;101986.00;;;;9653646;30;20236;-77
2021/04/01 20:45:58;;;;;;;20.27;5.87;;;;;8.90;101985.00;;;;9654224;30;20658;-77
2021/04/01 20:51:01;;;;;;;15.77;5.43;;;;;8.80;101981.00;;;;9691661;30;20211;-77
2021/04/01 20:56:03;;;;;;;20.67;6.30;;;;;8.70;101989.00;;;;9695833;30;20554;-76
2021/04/01 21:01:06;;;;;;;22.23;5.63;;;;;8.60;101993.00;;;;9681218;30;20227;-77
2021/04/01 21:06:10;;;;;;;19.97;6.43;;;;;8.50;101993.00;;;;9694678;30;20219;-77
2021/04/01 21:11:11;;;;;;;25.93;6.47;;;;;8.40;101989.00;;;;9687018;30;20208;-76
2021/04/01 21:16:13;;;;;;;19.77;6.03;;;;;8.30;102003.00;;;;9665227;30;20227;-77
2021/04/01 21:21:14;;;;;;;21.53;7.17;;;;;8.20;101997.00;;;;9693560;30;20689;-77
2021/04/01 21:26:15;;;;;;;19.90;6.37;;;;;8.10;101999.00;;;;9679221;30;20228;-78
2021/04/01 21:31:17;;;;;;;13.53;5.87;;;;;8.00;102002.00;;;;9710449;30;20282;-77
2021/04/01 21:36:18;;;;;;;20.03;7.00;;;;;7.90;102002.00;;;;9695034;30;20242;-77
2021/04/01 21:41:20;;;;;;;13.60;6.27;;;;;7.80;102006.00;;;;9694634;30;20227;-78
2021/04/01 21:46:21;;;;;;;19.87;6.23;;;;;7.80;102008.00;;;;9695627;30;20208;-78
2021/04/01 21:51:23;;;;;;;21.00;7.57;;;;;7.70;102012.00;;;;9693576;30;20196;-77
2021/04/01 21:56:24;;;;;;;15.00;6.60;;;;;7.60;102014.00;;;;9694095;30;20211;-77
2021/04/01 22:01:26;;;;;;;14.27;6.57;;;;;7.50;102026.00;;;;9694315;30;20731;-77
2021/04/01 22:06:28;;;;;;;14.77;6.73;;;;;7.40;102028.00;;;;9694109;30;20219;-77
2021/04/01 22:11:29;;;;;;;23.27;7.27;;;;;7.30;102035.00;;;;9694752;30;20206;-77
2021/04/01 22:16:30;;;;;;;18.10;7.07;;;;;7.20;102038.00;;;;9693247;30;20270;-77
2021/04/01 22:21:32;;;;;;;18.03;6.60;;;;;7.10;102039.00;;;;9707326;30;20249;-78
2021/04/01 22:26:33;;;;;;;22.43;7.30;;;;;7.10;102044.00;;;;9678423;30;20232;-77
2021/04/01 22:31:35;;;;;;;17.20;6.70;;;;;7.00;102044.00;;;;9692666;30;20277;-77
2021/04/01 22:36:36;;;;;;;15.50;6.80;;;;;6.90;102048.00;;;;9670881;30;20398;-77
2021/04/01 22:41:37;;;;;;;19.27;8.10;;;;;6.80;102053.00;;;;9670779;30;20224;-78
2021/04/01 22:46:39;;;;;;;12.33;6.40;;;;;6.80;102056.00;;;;9661338;30;20886;-78
2021/04/01 22:51:41;;;;;;;16.60;6.43;;;;;6.70;102057.00;;;;9693006;30;20216;-77
2021/04/01 22:56:42;;;;;;;18.03;7.30;;;;;6.60;102045.00;;;;9692437;30;20214;-77
2021/04/01 23:01:44;;;;;;;17.50;7.83;;;;;6.50;102054.00;;;;9705844;30;20212;-77
2021/04/01 23:06:52;;;;;;;14.90;8.10;;;;;6.40;102055.00;;;;9690707;30;20219;-77
2021/04/01 23:11:54;;;;;;;13.07;7.00;;;;;6.40;102060.00;;;;9649030;30;20530;-77
2021/04/01 23:16:55;;;;;;;13.80;7.17;;;;;6.30;102064.00;;;;9676327;30;20286;-77
2021/04/01 23:21:56;;;;;;;21.63;7.40;;;;;6.20;102057.00;;;;9675996;30;20224;-77
2021/04/01 23:26:58;;;;;;;12.10;7.07;;;;;6.10;102067.00;;;;9661575;30;20294;-77
2021/04/01 23:32:00;;;;;;;16.63;7.17;;;;;6.00;102060.00;;;;9662142;30;20200;-78
2021/04/01 23:37:03;;;;;;;19.60;7.90;;;;;6.00;102070.00;;;;9721966;30;20716;-78
2021/04/01 23:42:04;;;;;;;11.70;7.37;;;;;6.00;102073.00;;;;9671429;30;20679;-78
2021/04/01 23:47:06;;;;;;;10.47;6.93;;;;;5.90;102077.00;;;;9673159;30;20228;-78
2021/04/01 23:52:08;;;;;;;15.43;7.70;;;;;5.80;102072.00;;;;9643066;30;20228;-78
2021/04/01 23:57:10;;;;;;;12.03;6.40;;;;;5.80;102064.00;;;;9665525;30;20207;-78
